Time;durP1;ratioP1;P1;durP2;ratioP2;P2;SDS_P1;SDS_P2;PMS_P1;PMS_P2;Temp;Humidity;BMP_temperature;BMP_pressure;BME280_temperature;BME280_humidity;BME280_pressure;Samples;Min_cycle;Max_cycle;Signal;HPM_P1;HPM_P2
2021/07/25 00:00:10;;;;;;;;;0.00;0.00;;;;;22.75;53.19;100416.44;6148576;23;45371;-85
2021/07/25 00:02:35;;;;;;;;;0.00;0.00;;;;;22.79;52.71;100422.50;6148079;23;45292;-82
2021/07/25 00:05:03;;;;;;;;;0.00;0.00;;;;;22.66;53.12;100419.53;6149063;23;45320;-85
2021/07/25 00:07:28;;;;;;;;;0.00;0.00;;;;;22.58;53.36;100425.22;6148816;23;45348;-85
2021/07/25 00:09:53;;;;;;;;;0.00;0.00;;;;;22.58;53.16;100421.69;6146416;23;50712;-85
2021/07/25 00:12:18;;;;;;;;;0.00;0.00;;;;;22.35;53.42;100389.13;6148364;23;46098;-85
2021/07/25 00:14:44;;;;;;;;;0.00;0.00;;;;;22.48;54.12;100415.94;6148489;23;45350;-83
2021/07/25 00:17:10;;;;;;;;;0.00;0.00;;;;;22.45;54.11;100416.94;6149308;23;45358;-85
2021/07/25 00:19:35;;;;;;;;;0.00;0.00;;;;;22.40;54.05;100403.91;6148553;23;45954;-85
2021/07/25 00:22:02;;;;;;;;;0.00;0.00;;;;;22.39;54.60;100422.53;6148134;23;45450;-85
2021/07/25 00:24:32;;;;;;;;;0.00;0.00;;;;;22.33;54.88;100420.16;6146379;23;45317;-85
2021/07/25 00:27:00;;;;;;;;;0.00;0.00;;;;;22.29;54.74;100411.47;6149351;23;45370;-84
2021/07/25 00:29:31;;;;;;;;;0.00;0.00;;;;;22.27;55.42;100414.19;6146882;23;46075;-80
2021/07/25 00:32:04;;;;;;;;;1.50;0.00;;;;;22.20;55.18;100407.47;6148699;23;45257;-82
2021/07/25 00:34:32;;;;;;;;;0.00;0.00;;;;;22.10;55.23;100399.06;6148003;23;45432;-81
2021/07/25 00:36:58;;;;;;;;;0.00;0.00;;;;;21.73;55.19;100353.00;6147900;23;45280;-81
2021/07/25 00:39:24;;;;;;;;;0.00;0.00;;;;;21.62;55.71;100341.09;6146934;23;45821;-81
2021/07/25 00:41:50;;;;;;;;;0.00;0.00;;;;;21.89;55.66;100387.66;6148608;23;45237;-82
2021/07/25 00:44:16;;;;;;;;;0.00;0.00;;;;;21.93;56.02;100398.97;6148580;23;45293;-82
2021/07/25 00:46:45;;;;;;;;;0.00;0.00;;;;;21.95;55.71;100405.94;6148515;23;45338;-81
2021/07/25 00:49:11;;;;;;;;;0.00;0.00;;;;;21.92;55.90;100419.31;6147737;23;46185;-82
2021/07/25 00:51:36;;;;;;;;;0.00;0.00;;;;;21.86;56.33;100412.50;6148118;23;45250;-82
2021/07/25 00:54:02;;;;;;;;;0.00;0.00;;;;;21.82;56.75;100402.09;6148112;23;45368;-82
2021/07/25 00:56:27;;;;;;;;;0.00;0.00;;;;;21.64;56.71;100388.69;6148887;23;45277;-83
2021/07/25 00:58:52;;;;;;;;;0.00;0.00;;;;;21.75;56.85;100402.34;6148718;23;45599;-82
2021/07/25 01:01:21;;;;;;;;;0.00;0.00;;;;;21.73;56.90;100408.63;6147825;23;45264;-82
2021/07/25 01:04:18;;;;;;;;;0.00;0.00;;;;;21.66;57.04;100402.75;6147712;23;45353;-81
2021/07/25 01:07:02;;;;;;;;;0.00;0.00;;;;;21.67;56.61;100396.50;6148276;22;45332;-81
2021/07/25 01:09:32;;;;;;;;;0.00;0.00;;;;;21.54;56.66;100379.44;6145395;23;45626;-81
2021/07/25 01:12:03;;;;;;;;;0.00;0.00;;;;;21.21;57.59;100325.22;6148000;23;45373;-81
2021/07/25 01:14:33;;;;;;;;;0.00;0.00;;;;;21.63;57.41;100385.19;6145952;23;45301;-83
2021/07/25 01:17:31;;;;;;;;;0.00;0.00;;;;;21.69;56.86;100394.66;6148460;23;45309;-82
2021/07/25 01:20:07;;;;;;;;;0.00;0.00;;;;;21.47;57.51;100349.72;6147556;23;45923;-81
2021/07/25 01:22:41;;;;;;;;;0.00;0.00;;;;;21.74;56.99;100397.09;6147490;23;45339;-80
2021/07/25 01:25:09;;;;;;;;;0.00;0.00;;;;;21.73;57.10;100390.09;6147824;23;45340;-80
2021/07/25 01:27:45;;;;;;;;;0.00;0.00;;;;;21.74;56.43;100392.66;6147928;23;45364;-80
2021/07/25 01:30:15;;;;;;;;;0.00;0.00;;;;;21.68;56.53;100377.03;6147082;23;46114;-80
2021/07/25 01:32:42;;;;;;;;;0.00;0.00;;;;;21.82;57.33;100388.84;6147729;23;45397;-80
2021/07/25 01:35:10;;;;;;;;;0.00;0.00;;;;;21.79;56.91;100396.94;6148212;23;45336;-80
2021/07/25 01:37:36;;;;;;;;;0.00;0.00;;;;;21.71;56.90;100371.59;6147239;23;45358;-80
2021/07/25 01:40:16;;;;;;;;;0.00;0.00;;;;;21.73;57.02;100390.94;6147299;23;45825;-80
2021/07/25 01:42:42;;;;;;;;;0.00;0.00;;;;;21.73;56.79;100395.38;6147251;23;45577;-81
2021/07/25 01:45:08;;;;;;;;;0.00;0.00;;;;;21.63;57.50;100389.63;6147751;23;45399;-81
2021/07/25 01:47:34;;;;;;;;;0.00;0.00;;;;;21.61;57.61;100396.78;6146069;23;45457;-81
2021/07/25 01:50:00;;;;;;;;;0.00;0.00;;;;;21.46;58.28;100361.22;6145377;23;48538;-81
2021/07/25 01:52:25;;;;;;;;;0.00;0.00;;;;;21.71;57.97;100387.50;6147599;23;45345;-82
2021/07/25 01:54:50;;;;;;;;;0.00;0.00;;;;;21.55;57.39;100375.84;6147706;23;45292;-81
2021/07/25 01:57:16;;;;;;;;;0.00;0.00;;;;;21.57;57.95;100393.41;6147835;23;45430;-81
2021/07/25 01:59:41;;;;;;;;;0.00;0.00;;;;;21.43;58.14;100372.81;6147422;23;45511;-81
2021/07/25 02:02:06;;;;;;;;;0.00;0.00;;;;;21.58;58.74;100391.59;6147457;23;45337;-81
2021/07/25 02:04:31;;;;;;;;;0.75;0.00;;;;;21.54;58.44;100379.44;6147602;23;45366;-81
2021/07/25 02:06:57;;;;;;;;;0.00;0.00;;;;;21.56;58.47;100377.59;6147408;23;48885;-81
2021/07/25 02:09:22;;;;;;;;;0.00;0.00;;;;;21.67;58.32;100388.56;6147581;23;45295;-81
2021/07/25 02:11:47;;;;;;;;;0.00;0.00;;;;;21.69;58.65;100383.22;6146703;23;45281;-81
2021/07/25 02:14:14;;;;;;;;;0.00;0.00;;;;;21.68;58.26;100386.78;6147732;23;45205;-81
2021/07/25 02:16:39;;;;;;;;;0.00;0.00;;;;;21.51;58.24;100356.59;6147584;23;45502;-81
2021/07/25 02:19:05;;;;;;;;;1.00;0.00;;;;;21.49;58.24;100363.75;6146894;23;46216;-81
2021/07/25 02:21:30;;;;;;;;;0.00;0.00;;;;;21.51;58.50;100364.53;6147546;23;45399;-81
2021/07/25 02:23:55;;;;;;;;;0.00;0.00;;;;;21.57;58.45;100380.19;6149553;23;45251;-80
2021/07/25 02:26:20;;;;;;;;;0.00;0.00;;;;;21.48;58.56;100377.91;6150350;23;45294;-81
2021/07/25 02:28:46;;;;;;;;;0.00;0.00;;;;;21.48;58.65;100380.56;6149332;23;45374;-82
2021/07/25 02:31:11;;;;;;;;;0.00;0.00;;;;;21.27;58.53;100365.53;6149318;23;45387;-80
2021/07/25 02:33:36;;;;;;;;;0.00;0.00;;;;;21.32;58.77;100381.22;6149081;23;45409;-81
2021/07/25 02:36:02;;;;;;;;;0.00;0.00;;;;;21.33;58.94;100385.59;6147929;23;45439;-80
2021/07/25 02:38:27;;;;;;;;;0.00;0.00;;;;;21.23;58.93;100365.72;6149032;23;46294;-81
2021/07/25 02:40:53;;;;;;;;;0.00;0.00;;;;;21.22;58.73;100348.13;6148348;23;45331;-81
2021/07/25 02:43:18;;;;;;;;;0.00;0.00;;;;;21.34;59.43;100371.41;6148881;23;45315;-80
2021/07/25 02:45:43;;;;;;;;;0.00;0.00;;;;;21.32;59.21;100368.00;6149484;23;45259;-80
2021/07/25 02:48:09;;;;;;;;;0.75;0.00;;;;;21.33;59.15;100358.25;6148752;23;45951;-80
2021/07/25 02:50:34;;;;;;;;;0.00;0.00;;;;;21.35;59.51;100357.25;6148789;23;45313;-80
2021/07/25 02:52:59;;;;;;;;;0.00;0.00;;;;;21.35;59.17;100359.91;6149991;23;45466;-81
2021/07/25 02:55:25;;;;;;;;;0.00;0.00;;;;;21.07;59.22;100307.31;6149264;23;45255;-80
2021/07/25 02:57:50;;;;;;;;;0.00;0.00;;;;;21.23;59.61;100349.84;6148759;23;46945;-80
2021/07/25 03:00:16;;;;;;;;;0.00;0.00;;;;;21.29;59.46;100367.25;6149359;23;45398;-81
2021/07/25 03:02:41;;;;;;;;;0.00;0.00;;;;;21.20;59.98;100352.63;6148510;23;45282;-80
2021/07/25 03:05:07;;;;;;;;;0.00;0.00;;;;;21.30;59.93;100363.66;6149535;23;45429;-81
2021/07/25 03:07:33;;;;;;;;;0.00;0.00;;;;;21.26;60.40;100366.44;6148731;23;46857;-81
2021/07/25 03:09:58;;;;;;;;;0.00;0.00;;;;;21.26;60.76;100361.16;6148683;22;45295;-81
2021/07/25 03:12:23;;;;;;;;;0.00;0.00;;;;;21.22;60.60;100356.06;6148934;23;49415;-81
2021/07/25 03:14:48;;;;;;;;;0.00;0.00;;;;;21.18;61.33;100347.41;6149002;23;47091;-81
2021/07/25 03:17:14;;;;;;;;;0.00;0.00;;;;;21.17;61.08;100358.91;6148430;23;52170;-81
2021/07/25 03:19:39;;;;;;;;;0.00;0.00;;;;;21.13;61.62;100359.94;6149004;23;45280;-81
2021/07/25 03:22:07;;;;;;;;;0.00;0.00;;;;;21.14;61.89;100356.38;6149438;23;45284;-81
2021/07/25 03:24:34;;;;;;;;;0.00;0.00;;;;;21.09;62.20;100364.53;6149533;23;45396;-81
2021/07/25 03:26:59;;;;;;;;;1.00;0.00;;;;;20.83;62.08;100324.06;6148675;23;47246;-82
2021/07/25 03:29:24;;;;;;;;;0.00;0.00;;;;;20.97;62.65;100354.44;6149124;23;45410;-81
2021/07/25 03:31:50;;;;;;;;;0.00;0.00;;;;;20.73;62.96;100320.97;6149170;23;45375;-81
2021/07/25 03:34:15;;;;;;;;;0.00;0.00;;;;;20.81;62.85;100335.66;6149292;23;45384;-81
2021/07/25 03:36:42;;;;;;;;;0.00;0.00;;;;;20.91;63.10;100350.25;6148637;23;45862;-81
2021/07/25 03:39:11;;;;;;;;;0.00;0.00;;;;;20.73;63.14;100331.53;6148578;23;45312;-81
2021/07/25 03:41:37;;;;;;;;;0.00;0.00;;;;;20.86;63.41;100347.75;6148922;23;45363;-80
2021/07/25 03:44:02;;;;;;;;;0.00;0.00;;;;;20.83;62.92;100339.94;6149254;23;45285;-81
2021/07/25 03:46:28;;;;;;;;;0.00;0.00;;;;;20.86;63.08;100337.19;6148454;23;45309;-81
2021/07/25 03:48:53;;;;;;;;;0.00;0.00;;;;;20.92;63.49;100344.03;6148713;23;45288;-80
2021/07/25 03:51:18;;;;;;;;;0.00;0.00;;;;;20.75;62.72;100310.31;6149054;23;45332;-81
2021/07/25 03:53:44;;;;;;;;;0.50;0.00;;;;;20.82;62.84;100334.75;6149197;23;45349;-80
2021/07/25 03:56:09;;;;;;;;;0.00;0.00;;;;;20.83;62.96;100333.81;6148814;23;46384;-81
2021/07/25 03:58:35;;;;;;;;;0.00;0.00;;;;;20.81;62.87;100333.00;6148688;23;45347;-80
2021/07/25 04:01:00;;;;;;;;;0.00;0.00;;;;;20.85;62.85;100335.47;6148645;23;45458;-81
2021/07/25 04:03:26;;;;;;;;;0.00;0.00;;;;;20.84;62.97;100332.88;6148813;23;45386;-81
2021/07/25 04:05:51;;;;;;;;;0.00;0.00;;;;;20.74;63.36;100320.03;6148766;23;45442;-80
2021/07/25 04:08:16;;;;;;;;;0.00;0.00;;;;;20.78;63.63;100328.72;6148941;23;45382;-80
2021/07/25 04:10:44;;;;;;;;;0.00;0.00;;;;;20.59;64.71;100337.41;6148816;23;45294;-80
2021/07/25 04:13:11;;;;;;;;;0.00;0.00;;;;;20.50;65.66;100341.28;6148919;23;45560;-80
2021/07/25 04:15:40;;;;;;;;;0.00;0.00;;;;;20.19;65.01;100313.38;6147478;23;47856;-81
2021/07/25 04:18:06;;;;;;;;;0.00;0.00;;;;;20.12;65.67;100309.22;6148538;23;45415;-80
2021/07/25 04:20:32;;;;;;;;;0.00;0.00;;;;;19.92;65.37;100278.28;6148709;23;45264;-80
2021/07/25 04:22:58;;;;;;;;;0.00;0.00;;;;;20.23;65.76;100333.50;6149229;23;45307;-80
2021/07/25 04:25:23;;;;;;;;;0.00;0.00;;;;;20.20;65.98;100338.00;6147411;23;45737;-80
2021/07/25 04:27:49;;;;;;;;;0.00;0.00;;;;;19.97;65.98;100316.78;6148343;23;45406;-80
2021/07/25 04:30:15;;;;;;;;;0.00;0.00;;;;;20.00;66.16;100332.56;6148023;23;45226;-80
2021/07/25 04:32:40;;;;;;;;;0.00;0.00;;;;;19.76;66.39;100297.34;6148840;23;45240;-81
2021/07/25 04:35:08;;;;;;;;;0.00;0.00;;;;;19.98;66.75;100322.94;6148767;23;45213;-80
2021/07/25 04:37:35;;;;;;;;;1.00;0.00;;;;;19.98;66.20;100323.81;6147879;23;45388;-81
2021/07/25 04:40:01;;;;;;;;;0.00;0.00;;;;;19.98;66.99;100318.53;6147899;23;45326;-81
2021/07/25 04:42:33;;;;;;;;;0.00;0.00;;;;;20.21;67.01;100324.75;6148686;23;45331;-81
2021/07/25 04:45:03;;;;;;;;;0.00;0.00;;;;;20.29;65.78;100328.88;6147410;23;45424;-81
2021/07/25 04:47:35;;;;;;;;;0.00;0.00;;;;;20.36;66.32;100333.00;6147936;23;45397;-80
2021/07/25 04:50:07;;;;;;;;;0.00;0.00;;;;;20.37;65.94;100329.44;6147639;23;45448;-81
2021/07/25 04:52:38;;;;;;;;;0.00;0.00;;;;;20.42;65.96;100335.41;6148194;23;45426;-80
2021/07/25 04:55:06;;;;;;;;;0.00;0.00;;;;;20.48;66.00;100340.47;6147221;23;47084;-80
2021/07/25 04:57:38;;;;;;;;;0.00;0.00;;;;;20.51;66.11;100335.06;6146342;23;45599;-80
2021/07/25 05:00:04;;;;;;;;;0.00;0.00;;;;;20.36;65.79;100325.06;6144889;23;45390;-80
2021/07/25 05:02:31;;;;;;;;;0.00;0.00;;;;;20.36;65.64;100341.78;6146530;23;45344;-81
2021/07/25 05:04:57;;;;;;;;;0.00;0.00;;;;;20.30;66.51;100339.38;6148393;23;45570;-81
2021/07/25 05:07:23;;;;;;;;;0.00;0.00;;;;;20.13;66.79;100311.81;6147919;23;45727;-81
2021/07/25 05:09:48;;;;;;;;;0.00;0.00;;;;;20.18;66.42;100318.72;6145934;23;45371;-81
2021/07/25 05:12:19;;;;;;;;;0.00;0.00;;;;;20.36;66.54;100348.84;6148602;23;45322;-81
2021/07/25 05:15:04;;;;;;;;;0.00;0.00;;;;;20.34;66.64;100351.56;6147335;23;45296;-80
2021/07/25 05:17:41;;;;;;;;;0.00;0.00;;;;;20.40;66.38;100353.13;6147975;23;45387;-81
2021/07/25 05:20:14;;;;;;;;;0.00;0.00;;;;;20.40;66.58;100358.41;6148157;23;45304;-81
2021/07/25 05:22:48;;;;;;;;;0.00;0.00;;;;;20.45;66.47;100356.44;6147637;23;45433;-81
2021/07/25 05:25:17;;;;;;;;;0.00;0.00;;;;;20.46;66.15;100352.03;6147870;23;45355;-81
2021/07/25 05:27:47;;;;;;;;;0.00;0.00;;;;;20.52;66.79;100354.41;6147246;23;45383;-81
2021/07/25 05:30:16;;;;;;;;;0.00;0.00;;;;;20.56;66.03;100348.09;6148194;23;45383;-81
2021/07/25 05:32:41;;;;;;;;;0.00;0.00;;;;;20.61;65.88;100354.03;6147867;23;45243;-81
2021/07/25 05:35:07;;;;;;;;;1.00;0.00;;;;;20.65;66.32;100354.81;6147787;23;46143;-81
2021/07/25 05:37:34;;;;;;;;;0.00;0.00;;;;;20.61;65.58;100355.84;6147723;23;45589;-81
2021/07/25 05:39:59;;;;;;;;;0.00;0.00;;;;;20.36;65.76;100315.38;6146423;23;45474;-81
2021/07/25 05:42:25;;;;;;;;;0.00;0.00;;;;;20.59;65.42;100347.09;6147552;23;45398;-81
2021/07/25 05:44:51;;;;;;;;;0.00;0.00;;;;;20.46;65.80;100322.94;6147305;23;46149;-81
2021/07/25 05:47:16;;;;;;;;;0.00;0.00;;;;;20.53;65.13;100332.34;6147941;23;45379;-81
2021/07/25 05:49:41;;;;;;;;;0.00;0.00;;;;;20.54;65.20;100338.47;6148172;23;45489;-81
2021/07/25 05:52:07;;;;;;;;;0.00;0.00;;;;;20.57;65.55;100335.72;6148402;23;45435;-81
2021/07/25 05:54:32;;;;;;;;;0.00;0.00;;;;;20.56;65.47;100328.72;6147838;23;45302;-81
2021/07/25 05:56:57;;;;;;;;;0.00;0.00;;;;;20.43;65.56;100313.31;6147252;23;45263;-81
2021/07/25 05:59:23;;;;;;;;;0.00;0.00;;;;;20.50;65.99;100335.09;6146193;22;45449;-81
2021/07/25 06:01:48;;;;;;;;;0.00;0.00;;;;;20.39;66.07;100314.38;6146108;23;48611;-81
2021/07/25 06:04:13;;;;;;;;;0.00;0.00;;;;;20.49;65.40;100323.66;6145334;23;55238;-81
2021/07/25 06:06:39;;;;;;;;;2.00;0.00;;;;;20.49;65.97;100323.66;6142376;23;45337;-81
2021/07/25 06:09:06;;;;;;;;;1.00;0.00;;;;;20.66;66.31;100338.00;6146977;23;45232;-81
2021/07/25 06:11:31;;;;;;;;;0.00;0.00;;;;;20.66;65.85;100318.63;6146722;23;45395;-81
2021/07/25 06:13:57;;;;;;;;;0.50;0.00;;;;;20.86;64.84;100333.69;6146768;23;45646;-81
2021/07/25 06:16:22;;;;;;;;;0.00;0.00;;;;;21.01;65.49;100333.06;6145271;23;45340;-81
2021/07/25 06:18:48;;;;;;;;;0.00;0.00;;;;;21.00;64.87;100317.25;6146762;22;45233;-82
2021/07/25 06:21:17;;;;;;;;;0.00;0.00;;;;;21.09;64.08;100345.13;6146504;23;45750;-82
2021/07/25 06:23:43;;;;;;;;;0.00;0.00;;;;;21.09;64.78;100351.28;6147194;23;45351;-82
2021/07/25 06:26:09;;;;;;;;;0.00;0.00;;;;;21.07;64.35;100333.75;6147215;23;45339;-83
2021/07/25 06:28:34;;;;;;;;;0.00;0.00;;;;;21.19;64.24;100351.75;6145635;23;45242;-82
2021/07/25 06:30:59;;;;;;;;;0.00;0.00;;;;;21.19;63.55;100338.50;6147702;22;45442;-82
2021/07/25 06:33:28;;;;;;;;;0.00;0.00;;;;;21.21;63.75;100344.63;6147810;23;45736;-82
2021/07/25 06:35:54;;;;;;;;;0.00;0.00;;;;;20.88;63.80;100303.59;6146860;23;45385;-81
2021/07/25 06:38:19;;;;;;;;;0.00;0.00;;;;;21.08;63.55;100327.53;6147768;23;45367;-83
2021/07/25 06:40:48;;;;;;;;;0.00;0.00;;;;;21.14;63.58;100349.28;6147220;23;45295;-80
2021/07/25 06:43:13;;;;;;;;;0.00;0.00;;;;;21.15;63.36;100352.81;6146878;23;46233;-82
2021/07/25 06:45:39;;;;;;;;;0.00;0.00;;;;;21.12;62.97;100343.22;6146992;23;45328;-81
2021/07/25 06:48:15;;;;;;;;;0.00;0.00;;;;;21.12;63.40;100342.34;6146475;23;45676;-82
2021/07/25 06:50:41;;;;;;;;;0.00;0.00;;;;;21.08;63.01;100346.94;6146822;23;45348;-81
2021/07/25 06:53:06;;;;;;;;;0.50;0.00;;;;;21.05;63.29;100314.44;6146954;23;61536;-81
2021/07/25 06:55:31;;;;;;;;;0.00;0.00;;;;;21.20;62.37;100342.91;6145931;23;56010;-81
2021/07/25 06:57:57;;;;;;;;;3.00;0.00;;;;;21.02;62.63;100316.25;6146908;23;45375;-81
2021/07/25 07:00:22;;;;;;;;;0.00;0.00;;;;;21.31;63.44;100352.19;6147493;23;45361;-80
2021/07/25 07:02:55;;;;;;;;;0.00;0.00;;;;;21.41;63.00;100352.63;6146914;23;45341;-79
2021/07/25 07:05:26;;;;;;;;;0.00;0.00;;;;;21.43;62.40;100353.41;6146868;23;45343;-79
2021/07/25 07:07:53;;;;;;;;;0.00;0.00;;;;;21.39;62.30;100356.22;6147008;23;45470;-79
2021/07/25 07:10:21;;;;;;;;;0.25;0.00;;;;;21.36;62.10;100361.63;6148359;23;45337;-79
2021/07/25 07:12:47;;;;;;;;;0.00;0.00;;;;;21.31;61.81;100331.00;6148071;23;46151;-79
2021/07/25 07:15:14;;;;;;;;;0.00;0.00;;;;;21.20;61.25;100334.09;6148105;23;45422;-79
2021/07/25 07:17:40;;;;;;;;;0.00;0.00;;;;;21.24;61.59;100352.44;6147993;23;45370;-79
2021/07/25 07:20:07;;;;;;;;;0.00;0.00;;;;;21.24;61.45;100362.16;6149164;23;45450;-80
2021/07/25 07:22:33;;;;;;;;;0.00;0.00;;;;;20.99;61.33;100312.91;6147797;23;45845;-81
2021/07/25 07:24:58;;;;;;;;;0.00;0.00;;;;;21.10;61.07;100320.41;6148315;23;45222;-80
2021/07/25 07:27:25;;;;;;;;;0.00;0.00;;;;;21.41;60.58;100349.97;6148230;23;45285;-78
2021/07/25 07:29:52;;;;;;;;;0.00;0.00;;;;;21.53;60.58;100370.63;6148797;23;45336;-79
2021/07/25 07:32:18;;;;;;;;;0.00;0.00;;;;;21.52;60.70;100343.28;6148437;23;45438;-78
2021/07/25 07:34:43;;;;;;;;;0.00;0.00;;;;;21.61;60.26;100362.34;6147661;23;45324;-83
2021/07/25 07:37:09;;;;;;;;;1.25;0.00;;;;;21.66;60.23;100373.63;6147702;23;45405;-83
2021/07/25 07:39:39;;;;;;;;;0.00;0.00;;;;;21.63;60.39;100366.63;6148228;23;45294;-81
2021/07/25 07:42:06;;;;;;;;;0.00;0.00;;;;;21.66;60.45;100363.03;6148658;23;46789;-79
2021/07/25 07:44:31;;;;;;;;;0.25;0.00;;;;;21.57;61.01;100348.41;6146749;23;45446;-79
2021/07/25 07:46:57;;;;;;;;;0.00;0.00;;;;;21.53;60.66;100338.84;6148642;23;45281;-79
2021/07/25 07:49:22;;;;;;;;;1.25;0.00;;;;;21.33;59.73;100316.75;6145722;23;45470;-79
2021/07/25 07:51:47;;;;;;;;;0.00;0.00;;;;;21.57;60.84;100360.75;6147520;23;46059;-79
2021/07/25 07:54:12;;;;;;;;;0.00;0.00;;;;;21.61;60.55;100346.47;6146235;23;45320;-80
2021/07/25 07:56:38;;;;;;;;;1.00;0.00;;;;;21.43;59.72;100319.88;6148680;23;45429;-79
2021/07/25 07:59:03;;;;;;;;;0.00;0.00;;;;;21.73;60.40;100366.25;6146429;23;45649;-79
2021/07/25 08:01:29;;;;;;;;;0.00;0.00;;;;;21.62;60.32;100362.28;6147907;23;45359;-78
2021/07/25 08:03:54;;;;;;;;;0.00;0.00;;;;;21.66;59.74;100355.06;6147602;23;45315;-77
2021/07/25 08:06:19;;;;;;;;;0.50;0.00;;;;;21.75;59.87;100378.50;6146446;23;45315;-77
2021/07/25 08:08:45;;;;;;;;;0.00;0.00;;;;;21.65;59.63;100355.97;6147516;23;45365;-77
2021/07/25 08:11:10;;;;;;;;;0.00;0.00;;;;;21.60;59.46;100350.03;6147819;23;46153;-79
2021/07/25 08:13:35;;;;;;;;;0.00;0.00;;;;;21.44;60.20;100318.09;6145586;23;45929;-79
2021/07/25 08:16:01;;;;;;;;;0.00;0.00;;;;;21.80;59.87;100359.78;6148424;23;45396;-80
2021/07/25 08:18:26;;;;;;;;;0.00;0.00;;;;;21.49;59.54;100311.66;6148996;23;45288;-79
2021/07/25 08:20:51;;;;;;;;;0.00;0.00;;;;;21.62;59.51;100327.00;6146193;23;54358;-79
2021/07/25 08:23:17;;;;;;;;;0.00;0.00;;;;;21.89;59.69;100369.09;6148623;23;45660;-80
2021/07/25 08:25:42;;;;;;;;;0.00;0.00;;;;;21.86;59.33;100366.59;6147960;23;58015;-78
2021/07/25 08:28:07;;;;;;;;;0.00;0.00;;;;;21.67;59.96;100358.56;6171962;22;45458;-80
2021/07/25 08:30:33;;;;;;;;;0.00;0.00;;;;;21.70;60.73;100366.38;6148059;23;45474;-81
2021/07/25 08:32:59;;;;;;;;;0.50;0.50;;;;;21.73;61.01;100368.91;6148428;23;45288;-77
2021/07/25 08:35:24;;;;;;;;;0.00;0.00;;;;;21.76;60.54;100371.44;6146870;23;45269;-80
2021/07/25 08:37:49;;;;;;;;;0.00;0.00;;;;;21.74;60.04;100368.81;6147511;23;47662;-80
2021/07/25 08:40:15;;;;;;;;;0.00;0.00;;;;;21.66;60.27;100355.06;6148007;23;45291;-80
2021/07/25 08:42:49;;;;;;;;;1.75;0.00;;;;;21.66;60.76;100365.66;6148225;23;45318;-79
2021/07/25 08:45:16;;;;;;;;;0.00;0.00;;;;;21.55;60.25;100350.25;6148179;23;45353;-80
2021/07/25 08:47:41;;;;;;;;;0.00;0.00;;;;;21.66;59.63;100365.66;6148200;23;45342;-79
2021/07/25 08:50:15;;;;;;;;;0.00;0.00;;;;;21.61;59.94;100349.97;6146236;23;45714;-79
2021/07/25 08:52:46;;;;;;;;;2.25;1.25;;;;;21.68;59.63;100361.16;6145957;23;45349;-79
2021/07/25 08:55:17;;;;;;;;;0.00;0.00;;;;;21.84;59.71;100368.47;6147665;23;45326;-79
2021/07/25 08:57:45;;;;;;;;;0.00;0.00;;;;;21.88;59.84;100367.38;6148272;23;45746;-79
2021/07/25 09:00:13;;;;;;;;;0.00;0.00;;;;;21.84;59.73;100368.47;6147562;23;45354;-79
2021/07/25 09:02:39;;;;;;;;;2.25;1.00;;;;;21.68;59.17;100347.06;6146693;23;45507;-80
2021/07/25 09:05:05;;;;;;;;;0.00;0.00;;;;;21.74;59.67;100360.88;6148054;23;45281;-81
2021/07/25 09:07:32;;;;;;;;;0.25;0.00;;;;;21.71;60.19;100346.94;6148337;23;45312;-82
2021/07/25 09:10:04;;;;;;;;;0.50;0.00;;;;;21.89;60.79;100367.31;6148326;23;45369;-80
2021/07/25 09:12:30;;;;;;;;;0.00;0.00;;;;;21.75;60.15;100336.13;6147831;23;45380;-80
2021/07/25 09:15:17;;;;;;;;;1.00;0.00;;;;;21.81;60.31;100352.69;6147809;23;45423;-80
2021/07/25 09:17:44;;;;;;;;;0.00;0.00;;;;;22.01;60.67;100365.03;6148363;23;45393;-84
2021/07/25 09:20:15;;;;;;;;;0.25;0.25;;;;;21.98;60.28;100368.69;6147806;23;46026;-89
2021/07/25 09:22:47;;;;;;;;;0.50;0.00;;;;;22.00;61.12;100369.50;6145539;23;45259;-86
2021/07/25 09:25:12;;;;;;;;;0.00;0.00;;;;;21.95;61.37;100371.47;6148989;23;45312;-81
2021/07/25 09:27:38;;;;;;;;;0.00;0.00;;;;;21.87;61.06;100355.06;6170287;23;45218;-79
2021/07/25 09:30:17;;;;;;;;;0.00;0.00;;;;;21.86;61.04;100367.44;6146757;23;53814;-81
2021/07/25 09:32:43;;;;;;;;;0.00;0.00;;;;;21.68;61.80;100355.84;6147713;23;45439;-83
2021/07/25 09:35:24;;;;;;;;;0.00;0.00;;;;;21.70;61.83;100372.53;6147591;23;45257;-82
2021/07/25 09:37:51;;;;;;;;;0.00;0.00;;;;;21.54;62.65;100374.13;6148276;23;45290;-81
2021/07/25 09:40:25;;;;;;;;;0.00;0.00;;;;;21.36;62.98;100360.75;6147600;23;45388;-83
2021/07/25 09:43:05;;;;;;;;;1.00;0.00;;;;;21.45;63.05;100367.44;6147469;23;45224;-81
2021/07/25 09:45:30;;;;;;;;;0.00;0.00;;;;;21.44;62.97;100363.94;6147785;23;45426;-81
2021/07/25 09:48:09;;;;;;;;;2.00;0.00;;;;;21.60;63.40;100382.69;6146324;23;45388;-80
2021/07/25 09:50:35;;;;;;;;;0.00;0.00;;;;;21.64;63.84;100381.63;6146619;23;46182;-80
2021/07/25 09:53:00;;;;;;;;;0.00;0.00;;;;;21.72;63.61;100386.59;6147429;23;45326;-81
2021/07/25 09:55:30;;;;;;;;;0.00;0.00;;;;;21.74;63.94;100383.84;6147718;23;45431;-81
2021/07/25 09:57:55;;;;;;;;;0.00;0.00;;;;;21.72;63.10;100391.03;6146026;22;45474;-80
2021/07/25 10:00:21;;;;;;;;;0.00;0.00;;;;;21.58;62.98;100371.28;6147440;23;45406;-81
2021/07/25 10:02:47;;;;;;;;;0.00;0.00;;;;;21.52;63.23;100353.88;6145686;23;45447;-81
2021/07/25 10:05:16;;;;;;;;;0.00;0.00;;;;;21.84;62.92;100373.75;6148354;23;45177;-81
2021/07/25 10:07:44;;;;;;;;;0.00;0.00;;;;;21.92;63.14;100365.47;6147659;23;45339;-82
2021/07/25 10:10:13;;;;;;;;;1.00;1.00;;;;;22.12;62.99;100375.16;6146885;23;45711;-81
2021/07/25 10:12:40;;;;;;;;;0.25;0.00;;;;;22.02;62.65;100341.13;6146899;23;45348;-80
2021/07/25 10:15:08;;;;;;;;;0.00;0.00;;;;;22.25;62.43;100370.16;6147850;23;45326;-80
2021/07/25 10:17:35;;;;;;;;;0.00;0.00;;;;;22.30;62.87;100361.97;6147399;23;45327;-81
2021/07/25 10:20:03;;;;;;;;;0.00;0.00;;;;;22.50;62.33;100358.38;6146865;23;48375;-81
2021/07/25 10:22:31;;;;;;;;;0.00;0.00;;;;;22.71;61.22;100358.31;6147445;23;45339;-81
2021/07/25 10:25:05;;;;;;;;;2.00;1.00;;;;;22.73;61.02;100353.81;6145513;22;45343;-81
2021/07/25 10:27:33;;;;;;;;;0.00;0.00;;;;;22.74;60.31;100336.94;6146833;23;45283;-81
2021/07/25 10:30:03;;;;;;;;;0.00;0.00;;;;;22.81;61.20;100334.84;6147255;23;45370;-81
2021/07/25 10:32:31;;;;;;;;;0.00;0.00;;;;;22.80;59.97;100344.59;6146820;23;45249;-80
2021/07/25 10:34:57;;;;;;;;;0.00;0.00;;;;;22.88;60.01;100349.53;6145599;23;45387;-81
2021/07/25 10:37:24;;;;;;;;;0.00;0.00;;;;;22.82;60.33;100325.97;6145605;23;45689;-81
2021/07/25 10:39:52;;;;;;;;;0.00;0.00;;;;;22.98;59.05;100332.22;6145000;23;46128;-81
2021/07/25 10:42:26;;;;;;;;;0.00;0.00;;;;;23.25;59.38;100337.03;6145506;23;45325;-81
2021/07/25 10:44:52;;;;;;;;;0.00;0.00;;;;;23.63;59.37;100337.81;6149429;23;45286;-82
2021/07/25 10:47:28;;;;;;;;;0.00;0.00;;;;;23.83;58.25;100336.78;6149218;23;45426;-81
2021/07/25 10:49:56;;;;;;;;;0.00;0.00;;;;;23.76;57.00;100332.72;6149260;23;45335;-81
2021/07/25 10:52:22;;;;;;;;;0.00;0.00;;;;;23.70;57.24;100320.63;6149487;23;45535;-81
2021/07/25 10:54:48;;;;;;;;;2.00;0.00;;;;;23.67;56.72;100320.78;6149352;23;45335;-82
2021/07/25 10:57:14;;;;;;;;;0.00;0.00;;;;;23.86;56.64;100335.75;6149515;23;45261;-81
2021/07/25 10:59:40;;;;;;;;;0.00;0.00;;;;;23.83;56.22;100326.16;6147285;23;47319;-81
2021/07/25 11:02:06;;;;;;;;;0.00;0.00;;;;;23.92;56.17;100332.75;6148665;23;45303;-81
2021/07/25 11:04:53;;;;;;;;;0.00;0.00;;;;;23.97;55.61;100325.38;6147120;23;45343;-81
2021/07/25 11:07:39;;;;;;;;;0.00;0.00;;;;;24.01;55.74;100326.09;6149387;23;45411;-81
2021/07/25 11:10:10;;;;;;;;;0.00;0.00;;;;;24.19;56.02;100332.19;6146437;23;46266;-80
2021/07/25 11:12:48;;;;;;;;;0.00;0.00;;;;;24.45;55.31;100327.25;6149107;23;45390;-80
2021/07/25 11:15:34;;;;;;;;;0.25;0.25;;;;;24.50;54.50;100311.84;6149200;23;45250;-81
2021/07/25 11:18:05;;;;;;;;;0.00;0.00;;;;;24.48;53.87;100329.72;6148829;23;45252;-82
2021/07/25 11:21:01;;;;;;;;;0.00;0.00;;;;;24.28;53.88;100334.34;6148927;23;45644;-80
2021/07/25 11:23:26;;;;;;;;;0.00;0.00;;;;;23.99;54.03;100327.97;6148986;23;45312;-80
2021/07/25 11:25:54;;;;;;;;;0.00;0.00;;;;;23.72;53.85;100317.88;6148834;22;45305;-80